^^

Nearby METAR Reports

 

KFNL - Ft Collins/Lovel, Colorado, USA
Distance from station: N 2mi, 3km
Updated: 09/29/2022 4:56 am
Clear
Clear
 Wind from S
Wind: S 5 mph , 7 km/h
Temperature: 52°F , 11°C
Dew Point: 39°F , 4°C
Humidity: 62%
Barometer: 1023 hPa
Clouds: Clear
Visibility: 10 miles , 16 km
2022/09/29 10:56 KFNL 291056Z 19004KT 10SM CLR 11/04 A3021 RMK AO2 SLP175 T01110039
KLMO - Longmont/Vbrand, Colorado, USA
Distance from station: SSW 19mi, 31km
Updated: 09/29/2022 4:55 am
Clear
Clear
 Wind from calm
Wind: Calm
Temperature: 50°F , 10°C
Dew Point: 41°F , 5°C
Humidity: 71%
Barometer: 1023.7 hPa
Clouds: Clear
Visibility: 7 miles , 11 km
2022/09/29 10:55 KLMO 291055Z AUTO 00000KT 7SM CLR 10/05 A3023 RMK AO2 T01030050
 
KGXY - Greeley/Weld, Colorado, USA
Distance from station: E 21mi, 34km
Updated: 09/29/2022 4:56 am
Clear
Clear
 Wind from W
Wind: W 3 mph , 6 km/h
Temperature: 46°F , 8°C
Dew Point: 39°F , 4°C
Humidity: 76%
Barometer: 1022.7 hPa
Clouds: Clear
Visibility: 10 miles , 16 km
2022/09/29 10:56 KGXY 291056Z 27003KT 10SM CLR 08/04 A3020 RMK AO2 SLP197 T00780044 $
KEIK - Erie Muni, Colorado, USA
Distance from station: S 28mi, 45km
Updated: 09/29/2022 4:55 am
Clear
Clear
 Wind from calm
Wind: Calm
Temperature: 50°F , 10°C
Dew Point: 39°F , 4°C
Humidity: 67%
Barometer: 1023.4 hPa
Clouds: Clear
Visibility: 10 miles , 16 km
2022/09/29 10:55 KEIK 291055Z AUTO 00000KT 10SM CLR 10/04 A3022 RMK AO2 T00950035 PWINO
 
KBDU - Boulder Muni, Colorado, USA
Distance from station: SSW 29mi, 47km
Updated: 09/29/2022 4:55 am
Clear
Clear
 Wind from calm
Wind: Calm
Temperature: 55°F , 13°C
Dew Point: 37°F , 3°C
Humidity: 51%
Barometer: 1023.4 hPa
Clouds: Clear
Visibility: 10 miles , 16 km
2022/09/29 10:55 KBDU 291055Z AUTO 00000KT 10SM CLR 13/03 A3022 RMK AO2
KBJC - Broomfield/Jeffc, Colorado, USA
Distance from station: S 36mi, 58km
Updated: 09/29/2022 4:55 am
Clear
Clear
 Wind from W
Wind: W 3 mph , 6 km/h
Temperature: 63°F , 17°C
Dew Point: 34°F , 1°C
Humidity: 34%
Barometer: 1024.7 hPa
Clouds: Clear
Visibility: 10 miles , 16 km
2022/09/29 10:55 KBJC 291055Z AUTO 26003KT 10SM CLR 17/01 A3026 RMK AO2
 
KDEN - Denver (dia), Colorado, USA
Distance from station: SSE 44mi, 70km
Updated: 09/29/2022 4:53 am
Partly cloudy
Partly cloudy
 Wind from SW
Wind: SW 10 mph , 17 km/h
Temperature: 61°F , 16°C
Dew Point: 37°F , 3°C
Humidity: 42%
Barometer: 1023.7 hPa
Clouds: Partly cloudy
Visibility: 10 miles , 16 km
Cloud details: Partly cloudy 22000 ft
2022/09/29 10:53 KDEN 291053Z 23009KT 10SM SCT220 16/03 A3023 RMK AO2 SLP156 T01610033
KFEW - Warren Air Base, Wyoming, USA
Distance from station: N 50mi, 80km
Updated: 09/28/2022 3:55 pm
NOT Current
Mostly cloudy
Mostly cloudy
 Wind from S
Wind: S 8 mph , 13 km/h
Temperature: 75°F , 24°C
Dew Point: 32°F , 0°C
Humidity: 21%
Barometer: 1026.4 hPa
Clouds: Mostly cloudy
Visibility: 10 miles , 16 km
Cloud details: Mostly cloudy 10000 ft
2022/09/28 21:55 KFEW 282155Z 17007KT 10SM BKN100 24/00 A3031 RMK AO2A SLP140 WND DATA ESTMD ALSTG/SLP ESTMD T02430001
 
KBKF - Buckley Angb/Den, Colorado, USA
Distance from station: SSE 50mi, 81km
Updated: 09/29/2022 4:58 am
Few Clouds
Few Clouds
 Wind from SSW
Wind: SSW 8 mph , 13 km/h
Temperature: 59°F , 15°C
Dew Point: 39°F , 4°C
Humidity: 48%
Barometer: 1024.4 hPa
Clouds: Few Clouds
Visibility: 10 miles , 16 km
Cloud details: Few Clouds 22000 ft
2022/09/29 10:58 KBKF 291058Z 21007KT 10SM FEW220 15/04 A3025 RMK AO2A SLP168 T01480036